Strona główna
METAR-TAF:

METAR-TAF

Lotnisko :

Hrabstwo Franklin, Vermont, Stany Zjednoczone

Szerokość geograficzna: 44-56-25N, Długość geograficzna: 073-05-51W, wysokość: 69 m

Aktualna obserwacja pogody

Raport powstał 27 minut temu, godzina 14:55 UTC
Wiatr 3 kt od zachodnio-północny zachód
Temperatura 0°C
Wilgotność 69%
Ciśnienie 1002 hPa
Widzialność: 16.1 km
Zachmurzenie całkowite na wysokości 3500 ft

METAR: KFSO 221455Z AUTO 29003KT 10SM OVC035 00/M05 A2959 RMK AO2 T00001055

czas: 10:22 (15:22 UTC)


TAF: brakujący

Obserwacja i prognoza pogody dla ponad 4000 lotnisk (raport METAR i TAF).

Dostępne stacje oznaczono żółtymi i czerwonymi punktami na mapie.

Najedź kursorem aby zobaczyć nazwę stacji.

Kliknij aby zobaczyć obserwacje i prognozy pogody.

Aby zmienić mapę: kliknij na zielony przycisk z czarnym krzyżykiem, aby powiększyć; na zielony przycisk z myślnikiem, aby pomniejszyć; na zielone strzałki, aby przejść do map sąsiednich.


METAR-TAF: